sensor_id;sensor_type;location;lat;lon;timestamp;temperature;humidity
53748;DHT22;39655;53.210;5.768;2023-05-29T00:00:51;9.20;81.80
53748;DHT22;39655;53.210;5.768;2023-05-29T00:03:17;9.20;82.10
53748;DHT22;39655;53.210;5.768;2023-05-29T00:05:44;9.20;82.20
53748;DHT22;39655;53.210;5.768;2023-05-29T00:08:09;9.20;82.00
53748;DHT22;39655;53.210;5.768;2023-05-29T00:10:35;9.10;81.70
53748;DHT22;39655;53.210;5.768;2023-05-29T00:13:02;9.10;81.60
53748;DHT22;39655;53.210;5.768;2023-05-29T00:15:28;9.10;81.60
53748;DHT22;39655;53.210;5.768;2023-05-29T00:17:55;9.10;81.40
53748;DHT22;39655;53.210;5.768;2023-05-29T00:20:21;9.10;81.30
53748;DHT22;39655;53.210;5.768;2023-05-29T00:22:47;9.10;82.50
53748;DHT22;39655;53.210;5.768;2023-05-29T00:25:15;9.10;82.00
53748;DHT22;39655;53.210;5.768;2023-05-29T00:27:42;9.00;81.90
53748;DHT22;39655;53.210;5.768;2023-05-29T00:30:08;9.00;81.80
53748;DHT22;39655;53.210;5.768;2023-05-29T00:32:33;9.00;81.80
53748;DHT22;39655;53.210;5.768;2023-05-29T00:34:59;8.90;81.90
53748;DHT22;39655;53.210;5.768;2023-05-29T00:37:25;8.90;82.30
53748;DHT22;39655;53.210;5.768;2023-05-29T00:39:51;8.90;82.60
53748;DHT22;39655;53.210;5.768;2023-05-29T00:42:17;8.80;82.40
53748;DHT22;39655;53.210;5.768;2023-05-29T00:44:42;8.80;82.60
53748;DHT22;39655;53.210;5.768;2023-05-29T00:47:08;8.80;82.60
53748;DHT22;39655;53.210;5.768;2023-05-29T00:49:35;8.80;82.60
53748;DHT22;39655;53.210;5.768;2023-05-29T00:52:02;8.80;82.20
53748;DHT22;39655;53.210;5.768;2023-05-29T00:54:29;8.90;82.50
53748;DHT22;39655;53.210;5.768;2023-05-29T00:56:57;9.00;81.90
53748;DHT22;39655;53.210;5.768;2023-05-29T00:59:26;9.00;81.80
53748;DHT22;39655;53.210;5.768;2023-05-29T01:01:52;9.10;81.30
53748;DHT22;39655;53.210;5.768;2023-05-29T01:04:20;9.10;81.40
53748;DHT22;39655;53.210;5.768;2023-05-29T01:06:46;9.10;81.60
53748;DHT22;39655;53.210;5.768;2023-05-29T01:09:12;9.10;81.30
53748;DHT22;39655;53.210;5.768;2023-05-29T01:14:52;9.10;81.20
53748;DHT22;39655;53.210;5.768;2023-05-29T01:17:32;9.00;81.20
53748;DHT22;39655;53.210;5.768;2023-05-29T01:23:06;9.00;81.10
53748;DHT22;39655;53.210;5.768;2023-05-29T01:28:21;9.00;81.30
53748;DHT22;39655;53.210;5.768;2023-05-29T01:30:49;9.00;81.30
53748;DHT22;39655;53.210;5.768;2023-05-29T01:33:17;9.00;81.20
53748;DHT22;39655;53.210;5.768;2023-05-29T01:35:43;9.00;81.40
53748;DHT22;39655;53.210;5.768;2023-05-29T01:38:09;8.90;81.20
53748;DHT22;39655;53.210;5.768;2023-05-29T01:40:35;8.90;81.10
53748;DHT22;39655;53.210;5.768;2023-05-29T01:43:01;9.00;81.30
53748;DHT22;39655;53.210;5.768;2023-05-29T01:45:27;9.00;81.30
53748;DHT22;39655;53.210;5.768;2023-05-29T01:47:53;9.10;81.40
53748;DHT22;39655;53.210;5.768;2023-05-29T01:50:20;9.10;81.50
53748;DHT22;39655;53.210;5.768;2023-05-29T01:52:47;9.10;81.40
53748;DHT22;39655;53.210;5.768;2023-05-29T01:55:13;9.10;81.60
53748;DHT22;39655;53.210;5.768;2023-05-29T01:57:39;9.20;81.50
53748;DHT22;39655;53.210;5.768;2023-05-29T02:00:06;9.40;81.00
53748;DHT22;39655;53.210;5.768;2023-05-29T02:02:40;9.40;80.90
53748;DHT22;39655;53.210;5.768;2023-05-29T02:05:08;9.50;81.00
53748;DHT22;39655;53.210;5.768;2023-05-29T02:07:34;9.50;80.50
53748;DHT22;39655;53.210;5.768;2023-05-29T02:10:03;9.50;80.30
53748;DHT22;39655;53.210;5.768;2023-05-29T02:12:29;9.40;80.20
53748;DHT22;39655;53.210;5.768;2023-05-29T02:14:55;9.40;80.10
53748;DHT22;39655;53.210;5.768;2023-05-29T02:17:21;9.50;80.30
53748;DHT22;39655;53.210;5.768;2023-05-29T02:19:47;9.50;80.40
53748;DHT22;39655;53.210;5.768;2023-05-29T02:22:12;9.60;80.30
53748;DHT22;39655;53.210;5.768;2023-05-29T02:24:38;9.70;80.00
53748;DHT22;39655;53.210;5.768;2023-05-29T02:27:04;9.70;79.70
53748;DHT22;39655;53.210;5.768;2023-05-29T02:29:30;9.70;79.70
53748;DHT22;39655;53.210;5.768;2023-05-29T02:31:55;9.70;79.60
53748;DHT22;39655;53.210;5.768;2023-05-29T02:34:21;9.80;79.50
53748;DHT22;39655;53.210;5.768;2023-05-29T02:36:50;9.80;79.40
53748;DHT22;39655;53.210;5.768;2023-05-29T02:39:20;9.80;79.50
53748;DHT22;39655;53.210;5.768;2023-05-29T02:41:46;9.80;79.50
53748;DHT22;39655;53.210;5.768;2023-05-29T02:44:11;9.80;79.50
53748;DHT22;39655;53.210;5.768;2023-05-29T02:46:37;9.90;79.40
53748;DHT22;39655;53.210;5.768;2023-05-29T02:49:03;9.90;79.40
53748;DHT22;39655;53.210;5.768;2023-05-29T02:51:28;9.90;79.10
53748;DHT22;39655;53.210;5.768;2023-05-29T02:53:55;9.90;79.30
53748;DHT22;39655;53.210;5.768;2023-05-29T02:56:21;9.90;79.10
53748;DHT22;39655;53.210;5.768;2023-05-29T02:58:49;9.90;79.20
53748;DHT22;39655;53.210;5.768;2023-05-29T03:01:16;10.00;79.00
53748;DHT22;39655;53.210;5.768;2023-05-29T03:03:41;10.00;79.00
53748;DHT22;39655;53.210;5.768;2023-05-29T03:06:07;10.00;78.90
53748;DHT22;39655;53.210;5.768;2023-05-29T03:08:34;10.00;78.90
53748;DHT22;39655;53.210;5.768;2023-05-29T03:11:00;10.10;78.80
53748;DHT22;39655;53.210;5.768;2023-05-29T03:13:26;10.10;78.70
53748;DHT22;39655;53.210;5.768;2023-05-29T03:15:52;10.10;78.50
53748;DHT22;39655;53.210;5.768;2023-05-29T03:18:22;10.20;78.30
53748;DHT22;39655;53.210;5.768;2023-05-29T03:20:48;10.20;78.20
53748;DHT22;39655;53.210;5.768;2023-05-29T03:23:14;10.20;78.30
53748;DHT22;39655;53.210;5.768;2023-05-29T03:25:40;10.30;78.10
53748;DHT22;39655;53.210;5.768;2023-05-29T03:28:06;10.30;78.10
53748;DHT22;39655;53.210;5.768;2023-05-29T03:30:31;10.20;78.20
53748;DHT22;39655;53.210;5.768;2023-05-29T03:32:57;10.30;77.90
53748;DHT22;39655;53.210;5.768;2023-05-29T03:35:29;10.40;77.60
53748;DHT22;39655;53.210;5.768;2023-05-29T03:37:55;10.40;77.40
53748;DHT22;39655;53.210;5.768;2023-05-29T03:40:20;10.40;77.20
53748;DHT22;39655;53.210;5.768;2023-05-29T03:42:46;10.50;76.80
53748;DHT22;39655;53.210;5.768;2023-05-29T03:45:12;10.40;76.80
53748;DHT22;39655;53.210;5.768;2023-05-29T03:47:37;10.50;76.60
53748;DHT22;39655;53.210;5.768;2023-05-29T03:50:04;10.50;76.10
53748;DHT22;39655;53.210;5.768;2023-05-29T03:52:30;10.40;76.10
53748;DHT22;39655;53.210;5.768;2023-05-29T03:54:55;10.40;76.10
53748;DHT22;39655;53.210;5.768;2023-05-29T03:57:21;10.40;75.80
53748;DHT22;39655;53.210;5.768;2023-05-29T03:59:47;10.40;75.60
53748;DHT22;39655;53.210;5.768;2023-05-29T04:02:12;10.50;75.50
53748;DHT22;39655;53.210;5.768;2023-05-29T04:04:38;10.50;75.20
53748;DHT22;39655;53.210;5.768;2023-05-29T04:07:05;10.50;75.00
53748;DHT22;39655;53.210;5.768;2023-05-29T04:09:33;10.50;75.10
53748;DHT22;39655;53.210;5.768;2023-05-29T04:12:00;10.60;75.00
53748;DHT22;39655;53.210;5.768;2023-05-29T04:14:28;10.60;75.00
53748;DHT22;39655;53.210;5.768;2023-05-29T04:16:54;10.60;74.80
53748;DHT22;39655;53.210;5.768;2023-05-29T04:19:20;10.60;74.90
53748;DHT22;39655;53.210;5.768;2023-05-29T04:21:46;10.60;74.80
53748;DHT22;39655;53.210;5.768;2023-05-29T04:24:14;10.70;75.00
53748;DHT22;39655;53.210;5.768;2023-05-29T04:26:39;10.60;75.00
53748;DHT22;39655;53.210;5.768;2023-05-29T04:29:07;10.60;74.90
53748;DHT22;39655;53.210;5.768;2023-05-29T04:31:33;10.60;74.80
53748;DHT22;39655;53.210;5.768;2023-05-29T04:34:02;10.60;74.80
53748;DHT22;39655;53.210;5.768;2023-05-29T04:36:30;10.60;75.10
53748;DHT22;39655;53.210;5.768;2023-05-29T04:38:58;10.60;75.10
53748;DHT22;39655;53.210;5.768;2023-05-29T04:41:24;10.60;75.00
53748;DHT22;39655;53.210;5.768;2023-05-29T04:43:58;10.70;75.00
53748;DHT22;39655;53.210;5.768;2023-05-29T04:46:24;10.80;74.80
53748;DHT22;39655;53.210;5.768;2023-05-29T04:48:51;10.90;74.10
53748;DHT22;39655;53.210;5.768;2023-05-29T04:51:20;11.00;73.90
53748;DHT22;39655;53.210;5.768;2023-05-29T04:53:47;10.90;74.00
53748;DHT22;39655;53.210;5.768;2023-05-29T04:56:14;10.90;74.00
53748;DHT22;39655;53.210;5.768;2023-05-29T04:58:40;10.80;74.30
53748;DHT22;39655;53.210;5.768;2023-05-29T05:01:06;10.80;74.30
53748;DHT22;39655;53.210;5.768;2023-05-29T05:03:33;10.90;74.10
53748;DHT22;39655;53.210;5.768;2023-05-29T05:06:02;10.80;74.20
53748;DHT22;39655;53.210;5.768;2023-05-29T05:08:29;10.80;73.90
53748;DHT22;39655;53.210;5.768;2023-05-29T05:10:55;10.80;74.10
53748;DHT22;39655;53.210;5.768;2023-05-29T05:13:21;10.70;74.20
53748;DHT22;39655;53.210;5.768;2023-05-29T05:15:46;10.80;74.30
53748;DHT22;39655;53.210;5.768;2023-05-29T05:18:12;10.90;74.10
53748;DHT22;39655;53.210;5.768;2023-05-29T05:20:40;10.90;73.80
53748;DHT22;39655;53.210;5.768;2023-05-29T05:23:06;10.90;73.70
53748;DHT22;39655;53.210;5.768;2023-05-29T05:25:32;11.00;73.80
53748;DHT22;39655;53.210;5.768;2023-05-29T05:28:00;10.90;74.00
53748;DHT22;39655;53.210;5.768;2023-05-29T05:30:26;10.90;74.10
53748;DHT22;39655;53.210;5.768;2023-05-29T05:32:52;11.00;74.20
53748;DHT22;39655;53.210;5.768;2023-05-29T05:35:18;11.10;74.20
53748;DHT22;39655;53.210;5.768;2023-05-29T05:37:44;11.10;74.10
53748;DHT22;39655;53.210;5.768;2023-05-29T05:40:10;11.20;73.70
53748;DHT22;39655;53.210;5.768;2023-05-29T05:42:36;11.40;73.80
53748;DHT22;39655;53.210;5.768;2023-05-29T05:45:02;11.50;73.10
53748;DHT22;39655;53.210;5.768;2023-05-29T05:47:28;11.50;73.10
53748;DHT22;39655;53.210;5.768;2023-05-29T05:49:54;11.50;73.20
53748;DHT22;39655;53.210;5.768;2023-05-29T05:52:20;11.50;73.30
53748;DHT22;39655;53.210;5.768;2023-05-29T05:54:46;11.60;73.10
53748;DHT22;39655;53.210;5.768;2023-05-29T05:57:11;11.60;72.60
53748;DHT22;39655;53.210;5.768;2023-05-29T05:59:37;11.60;72.40
53748;DHT22;39655;53.210;5.768;2023-05-29T06:02:03;11.60;72.30
53748;DHT22;39655;53.210;5.768;2023-05-29T06:04:29;11.70;72.30
53748;DHT22;39655;53.210;5.768;2023-05-29T06:06:55;11.70;72.00
53748;DHT22;39655;53.210;5.768;2023-05-29T06:09:21;11.80;71.30
53748;DHT22;39655;53.210;5.768;2023-05-29T06:11:47;11.80;71.40
53748;DHT22;39655;53.210;5.768;2023-05-29T06:14:15;11.90;71.20
53748;DHT22;39655;53.210;5.768;2023-05-29T06:16:42;11.90;70.60
53748;DHT22;39655;53.210;5.768;2023-05-29T06:19:08;11.90;70.50
53748;DHT22;39655;53.210;5.768;2023-05-29T06:21:34;12.00;70.40
53748;DHT22;39655;53.210;5.768;2023-05-29T06:24:00;12.10;70.40
53748;DHT22;39655;53.210;5.768;2023-05-29T06:26:25;12.10;70.20
53748;DHT22;39655;53.210;5.768;2023-05-29T06:28:52;12.20;70.10
53748;DHT22;39655;53.210;5.768;2023-05-29T06:31:18;12.20;69.60
53748;DHT22;39655;53.210;5.768;2023-05-29T06:33:44;12.30;70.10
53748;DHT22;39655;53.210;5.768;2023-05-29T06:36:10;12.60;69.90
53748;DHT22;39655;53.210;5.768;2023-05-29T06:38:36;12.70;69.90
53748;DHT22;39655;53.210;5.768;2023-05-29T06:41:02;12.70;69.70
53748;DHT22;39655;53.210;5.768;2023-05-29T06:43:28;12.90;69.40
53748;DHT22;39655;53.210;5.768;2023-05-29T06:45:54;12.80;69.30
53748;DHT22;39655;53.210;5.768;2023-05-29T06:48:19;12.80;68.70
53748;DHT22;39655;53.210;5.768;2023-05-29T06:50:49;12.80;69.00
53748;DHT22;39655;53.210;5.768;2023-05-29T06:53:15;12.90;68.30
53748;DHT22;39655;53.210;5.768;2023-05-29T06:55:44;12.90;68.10
53748;DHT22;39655;53.210;5.768;2023-05-29T06:58:10;12.90;68.20
53748;DHT22;39655;53.210;5.768;2023-05-29T07:00:35;13.00;67.50
53748;DHT22;39655;53.210;5.768;2023-05-29T07:03:01;13.00;68.00
53748;DHT22;39655;53.210;5.768;2023-05-29T07:05:26;12.90;67.30
53748;DHT22;39655;53.210;5.768;2023-05-29T07:07:52;13.00;68.10
53748;DHT22;39655;53.210;5.768;2023-05-29T07:10:18;13.10;67.40
53748;DHT22;39655;53.210;5.768;2023-05-29T07:12:43;13.20;66.50
53748;DHT22;39655;53.210;5.768;2023-05-29T07:15:09;13.30;66.90
53748;DHT22;39655;53.210;5.768;2023-05-29T07:17:35;13.40;67.00
53748;DHT22;39655;53.210;5.768;2023-05-29T07:20:01;13.50;66.20
53748;DHT22;39655;53.210;5.768;2023-05-29T07:22:26;13.50;66.10
53748;DHT22;39655;53.210;5.768;2023-05-29T07:24:52;13.40;65.00
53748;DHT22;39655;53.210;5.768;2023-05-29T07:27:17;13.40;65.50
53748;DHT22;39655;53.210;5.768;2023-05-29T07:29:43;13.40;66.60
53748;DHT22;39655;53.210;5.768;2023-05-29T07:32:09;13.60;66.80
53748;DHT22;39655;53.210;5.768;2023-05-29T07:34:35;13.70;67.10
53748;DHT22;39655;53.210;5.768;2023-05-29T07:37:05;13.70;66.50
53748;DHT22;39655;53.210;5.768;2023-05-29T07:39:32;13.80;66.00
53748;DHT22;39655;53.210;5.768;2023-05-29T07:41:59;13.80;65.70
53748;DHT22;39655;53.210;5.768;2023-05-29T07:44:26;13.70;66.30
53748;DHT22;39655;53.210;5.768;2023-05-29T07:46:52;13.80;65.60
53748;DHT22;39655;53.210;5.768;2023-05-29T07:49:19;13.90;64.60
53748;DHT22;39655;53.210;5.768;2023-05-29T07:51:44;13.90;63.90
53748;DHT22;39655;53.210;5.768;2023-05-29T07:54:10;13.90;64.40
53748;DHT22;39655;53.210;5.768;2023-05-29T07:56:36;13.80;64.50
53748;DHT22;39655;53.210;5.768;2023-05-29T07:59:02;13.80;65.00
53748;DHT22;39655;53.210;5.768;2023-05-29T08:01:29;13.70;65.00
53748;DHT22;39655;53.210;5.768;2023-05-29T08:03:54;13.60;64.90
53748;DHT22;39655;53.210;5.768;2023-05-29T08:06:20;13.40;65.20
53748;DHT22;39655;53.210;5.768;2023-05-29T08:08:46;13.40;65.10
53748;DHT22;39655;53.210;5.768;2023-05-29T08:11:12;13.60;66.00
53748;DHT22;39655;53.210;5.768;2023-05-29T08:13:38;13.70;65.90
53748;DHT22;39655;53.210;5.768;2023-05-29T08:16:03;14.00;65.10
53748;DHT22;39655;53.210;5.768;2023-05-29T08:18:31;14.20;64.10
53748;DHT22;39655;53.210;5.768;2023-05-29T08:20:57;14.40;62.60
53748;DHT22;39655;53.210;5.768;2023-05-29T08:23:23;14.20;63.00
53748;DHT22;39655;53.210;5.768;2023-05-29T08:25:48;14.20;63.50
53748;DHT22;39655;53.210;5.768;2023-05-29T08:28:15;14.20;63.30
53748;DHT22;39655;53.210;5.768;2023-05-29T08:30:43;14.10;63.50
53748;DHT22;39655;53.210;5.768;2023-05-29T08:33:08;14.10;63.60
53748;DHT22;39655;53.210;5.768;2023-05-29T08:35:34;14.30;62.90
53748;DHT22;39655;53.210;5.768;2023-05-29T08:38:00;14.30;63.00
53748;DHT22;39655;53.210;5.768;2023-05-29T08:40:25;14.50;62.80
53748;DHT22;39655;53.210;5.768;2023-05-29T08:42:57;14.60;62.50
53748;DHT22;39655;53.210;5.768;2023-05-29T08:45:24;14.60;61.90
53748;DHT22;39655;53.210;5.768;2023-05-29T08:47:52;14.60;61.60
53748;DHT22;39655;53.210;5.768;2023-05-29T08:50:19;14.60;62.40
53748;DHT22;39655;53.210;5.768;2023-05-29T08:52:46;14.60;61.60
53748;DHT22;39655;53.210;5.768;2023-05-29T08:55:12;14.50;62.00
53748;DHT22;39655;53.210;5.768;2023-05-29T08:57:38;14.60;61.90
53748;DHT22;39655;53.210;5.768;2023-05-29T09:00:06;14.60;62.10
53748;DHT22;39655;53.210;5.768;2023-05-29T09:02:41;14.50;62.00
53748;DHT22;39655;53.210;5.768;2023-05-29T09:05:10;14.50;62.70
53748;DHT22;39655;53.210;5.768;2023-05-29T09:07:36;14.70;62.60
53748;DHT22;39655;53.210;5.768;2023-05-29T09:10:08;14.80;61.70
53748;DHT22;39655;53.210;5.768;2023-05-29T09:12:34;14.80;61.90
53748;DHT22;39655;53.210;5.768;2023-05-29T09:15:01;14.80;61.90
53748;DHT22;39655;53.210;5.768;2023-05-29T09:17:33;15.00;62.20
53748;DHT22;39655;53.210;5.768;2023-05-29T09:19:59;14.80;62.00
53748;DHT22;39655;53.210;5.768;2023-05-29T09:22:25;14.80;62.00
53748;DHT22;39655;53.210;5.768;2023-05-29T09:24:51;14.80;61.90
53748;DHT22;39655;53.210;5.768;2023-05-29T09:27:18;14.80;62.30
53748;DHT22;39655;53.210;5.768;2023-05-29T09:29:48;15.00;61.60
53748;DHT22;39655;53.210;5.768;2023-05-29T09:32:17;14.90;61.70
53748;DHT22;39655;53.210;5.768;2023-05-29T09:34:44;15.00;61.30
53748;DHT22;39655;53.210;5.768;2023-05-29T09:37:11;14.90;61.20
53748;DHT22;39655;53.210;5.768;2023-05-29T09:39:50;14.90;61.40
53748;DHT22;39655;53.210;5.768;2023-05-29T09:42:17;15.10;61.60
53748;DHT22;39655;53.210;5.768;2023-05-29T09:44:46;15.20;61.40
53748;DHT22;39655;53.210;5.768;2023-05-29T09:47:17;15.30;61.00
53748;DHT22;39655;53.210;5.768;2023-05-29T09:49:44;15.40;61.00
53748;DHT22;39655;53.210;5.768;2023-05-29T09:52:13;15.40;60.40
53748;DHT22;39655;53.210;5.768;2023-05-29T09:54:44;15.20;60.50
53748;DHT22;39655;53.210;5.768;2023-05-29T09:57:13;15.20;60.70
53748;DHT22;39655;53.210;5.768;2023-05-29T09:59:45;15.20;61.00
53748;DHT22;39655;53.210;5.768;2023-05-29T10:02:17;15.10;61.80
53748;DHT22;39655;53.210;5.768;2023-05-29T10:04:43;15.10;61.50
53748;DHT22;39655;53.210;5.768;2023-05-29T10:07:20;15.10;62.20
53748;DHT22;39655;53.210;5.768;2023-05-29T10:09:54;15.30;62.70
53748;DHT22;39655;53.210;5.768;2023-05-29T10:12:24;15.50;61.80
53748;DHT22;39655;53.210;5.768;2023-05-29T10:14:55;15.60;61.70
53748;DHT22;39655;53.210;5.768;2023-05-29T10:17:26;15.50;61.30
53748;DHT22;39655;53.210;5.768;2023-05-29T10:19:56;15.70;61.20
53748;DHT22;39655;53.210;5.768;2023-05-29T10:22:25;15.80;60.50
53748;DHT22;39655;53.210;5.768;2023-05-29T10:24:52;15.80;60.90
53748;DHT22;39655;53.210;5.768;2023-05-29T10:27:20;15.90;60.10
53748;DHT22;39655;53.210;5.768;2023-05-29T10:29:56;16.10;59.90
53748;DHT22;39655;53.210;5.768;2023-05-29T10:32:29;16.10;57.40
53748;DHT22;39655;53.210;5.768;2023-05-29T10:35:17;16.10;58.50
53748;DHT22;39655;53.210;5.768;2023-05-29T10:40:12;16.10;59.20
53748;DHT22;39655;53.210;5.768;2023-05-29T10:42:46;16.20;59.50
53748;DHT22;39655;53.210;5.768;2023-05-29T10:50:46;16.40;58.70
53748;DHT22;39655;53.210;5.768;2023-05-29T10:53:23;16.20;59.00
53748;DHT22;39655;53.210;5.768;2023-05-29T10:55:50;16.30;59.70
53748;DHT22;39655;53.210;5.768;2023-05-29T10:58:20;16.40;59.00
53748;DHT22;39655;53.210;5.768;2023-05-29T11:00:48;16.50;57.50
53748;DHT22;39655;53.210;5.768;2023-05-29T11:03:15;16.60;57.40
53748;DHT22;39655;53.210;5.768;2023-05-29T11:08:47;16.90;57.80
53748;DHT22;39655;53.210;5.768;2023-05-29T11:13:55;16.90;57.10
53748;DHT22;39655;53.210;5.768;2023-05-29T11:18:55;16.70;57.40
53748;DHT22;39655;53.210;5.768;2023-05-29T11:23:52;16.50;56.90
53748;DHT22;39655;53.210;5.768;2023-05-29T11:26:22;16.50;57.50
53748;DHT22;39655;53.210;5.768;2023-05-29T11:28:48;16.60;56.60
53748;DHT22;39655;53.210;5.768;2023-05-29T11:31:15;16.50;56.70
53748;DHT22;39655;53.210;5.768;2023-05-29T11:33:47;16.30;57.00
53748;DHT22;39655;53.210;5.768;2023-05-29T11:36:15;16.50;57.40
53748;DHT22;39655;53.210;5.768;2023-05-29T11:38:41;16.80;56.40
53748;DHT22;39655;53.210;5.768;2023-05-29T11:41:07;17.20;54.40
53748;DHT22;39655;53.210;5.768;2023-05-29T11:43:34;17.60;53.90
53748;DHT22;39655;53.210;5.768;2023-05-29T11:46:00;18.00;53.10
53748;DHT22;39655;53.210;5.768;2023-05-29T11:48:25;18.30;52.90
53748;DHT22;39655;53.210;5.768;2023-05-29T11:50:52;18.20;53.10
53748;DHT22;39655;53.210;5.768;2023-05-29T11:53:18;18.20;52.00
53748;DHT22;39655;53.210;5.768;2023-05-29T11:55:44;18.50;52.90
53748;DHT22;39655;53.210;5.768;2023-05-29T11:58:10;18.60;51.50
53748;DHT22;39655;53.210;5.768;2023-05-29T12:00:37;18.80;51.10
53748;DHT22;39655;53.210;5.768;2023-05-29T12:03:06;18.70;50.40
53748;DHT22;39655;53.210;5.768;2023-05-29T12:05:49;18.50;51.40
53748;DHT22;39655;53.210;5.768;2023-05-29T12:08:21;18.10;51.30
53748;DHT22;39655;53.210;5.768;2023-05-29T12:10:48;18.10;52.20
53748;DHT22;39655;53.210;5.768;2023-05-29T12:13:14;18.20;52.10
53748;DHT22;39655;53.210;5.768;2023-05-29T12:15:44;18.10;50.40
53748;DHT22;39655;53.210;5.768;2023-05-29T12:18:10;17.60;51.90
53748;DHT22;39655;53.210;5.768;2023-05-29T12:20:36;17.70;52.80
53748;DHT22;39655;53.210;5.768;2023-05-29T12:23:05;17.80;52.80
53748;DHT22;39655;53.210;5.768;2023-05-29T12:25:30;17.80;51.60
53748;DHT22;39655;53.210;5.768;2023-05-29T12:27:59;18.00;52.10
53748;DHT22;39655;53.210;5.768;2023-05-29T12:30:26;18.00;52.80
53748;DHT22;39655;53.210;5.768;2023-05-29T12:32:54;18.10;52.80
53748;DHT22;39655;53.210;5.768;2023-05-29T12:35:24;18.50;50.90
53748;DHT22;39655;53.210;5.768;2023-05-29T12:38:00;18.60;51.20
53748;DHT22;39655;53.210;5.768;2023-05-29T12:40:28;18.40;50.10
53748;DHT22;39655;53.210;5.768;2023-05-29T12:42:59;18.40;51.60
53748;DHT22;39655;53.210;5.768;2023-05-29T12:45:27;18.40;51.30
53748;DHT22;39655;53.210;5.768;2023-05-29T12:47:55;18.70;49.70
53748;DHT22;39655;53.210;5.768;2023-05-29T12:50:26;18.90;50.40
53748;DHT22;39655;53.210;5.768;2023-05-29T12:53:08;19.10;50.60
53748;DHT22;39655;53.210;5.768;2023-05-29T12:55:37;18.70;50.00
53748;DHT22;39655;53.210;5.768;2023-05-29T12:58:10;18.60;50.90
53748;DHT22;39655;53.210;5.768;2023-05-29T13:00:37;18.30;50.70
53748;DHT22;39655;53.210;5.768;2023-05-29T13:03:04;18.10;51.30
53748;DHT22;39655;53.210;5.768;2023-05-29T13:05:30;18.10;52.30
53748;DHT22;39655;53.210;5.768;2023-05-29T13:07:57;18.10;51.50
53748;DHT22;39655;53.210;5.768;2023-05-29T13:10:25;18.00;51.90
53748;DHT22;39655;53.210;5.768;2023-05-29T13:12:52;18.30;51.90
53748;DHT22;39655;53.210;5.768;2023-05-29T13:15:21;19.00;51.30
53748;DHT22;39655;53.210;5.768;2023-05-29T13:17:50;19.60;49.00
53748;DHT22;39655;53.210;5.768;2023-05-29T13:20:16;20.00;48.20
53748;DHT22;39655;53.210;5.768;2023-05-29T13:22:43;20.30;47.90
53748;DHT22;39655;53.210;5.768;2023-05-29T13:25:12;20.40;44.70
53748;DHT22;39655;53.210;5.768;2023-05-29T13:27:41;20.30;46.50
53748;DHT22;39655;53.210;5.768;2023-05-29T13:30:08;20.10;47.40
53748;DHT22;39655;53.210;5.768;2023-05-29T13:32:34;20.10;48.10
53748;DHT22;39655;53.210;5.768;2023-05-29T13:35:00;20.20;47.10
53748;DHT22;39655;53.210;5.768;2023-05-29T13:37:27;20.10;46.90
53748;DHT22;39655;53.210;5.768;2023-05-29T13:39:53;20.00;46.90
53748;DHT22;39655;53.210;5.768;2023-05-29T13:42:19;19.80;47.30
53748;DHT22;39655;53.210;5.768;2023-05-29T13:44:47;19.70;47.80
53748;DHT22;39655;53.210;5.768;2023-05-29T13:47:13;19.60;48.50
53748;DHT22;39655;53.210;5.768;2023-05-29T13:49:39;19.90;47.40
53748;DHT22;39655;53.210;5.768;2023-05-29T13:52:05;20.10;47.30
53748;DHT22;39655;53.210;5.768;2023-05-29T13:54:31;20.50;46.40
53748;DHT22;39655;53.210;5.768;2023-05-29T13:57:04;21.00;44.90
53748;DHT22;39655;53.210;5.768;2023-05-29T13:59:34;21.30;44.10
53748;DHT22;39655;53.210;5.768;2023-05-29T14:02:00;21.60;42.70
53748;DHT22;39655;53.210;5.768;2023-05-29T14:04:26;21.50;41.60
53748;DHT22;39655;53.210;5.768;2023-05-29T14:06:52;21.30;42.10
53748;DHT22;39655;53.210;5.768;2023-05-29T14:09:18;21.10;42.90
53748;DHT22;39655;53.210;5.768;2023-05-29T14:11:55;21.30;43.10
53748;DHT22;39655;53.210;5.768;2023-05-29T14:14:21;21.50;42.60
53748;DHT22;39655;53.210;5.768;2023-05-29T14:16:48;21.90;40.40
53748;DHT22;39655;53.210;5.768;2023-05-29T14:19:14;21.70;40.90
53748;DHT22;39655;53.210;5.768;2023-05-29T14:21:40;21.90;42.30
53748;DHT22;39655;53.210;5.768;2023-05-29T14:24:06;22.40;40.30
53748;DHT22;39655;53.210;5.768;2023-05-29T14:26:33;22.70;39.70
53748;DHT22;39655;53.210;5.768;2023-05-29T14:28:58;22.40;38.90
53748;DHT22;39655;53.210;5.768;2023-05-29T14:31:24;22.10;40.10
53748;DHT22;39655;53.210;5.768;2023-05-29T14:33:49;21.80;40.40
53748;DHT22;39655;53.210;5.768;2023-05-29T14:36:15;21.90;39.00
53748;DHT22;39655;53.210;5.768;2023-05-29T14:38:41;21.70;38.40
53748;DHT22;39655;53.210;5.768;2023-05-29T14:41:08;21.30;40.60
53748;DHT22;39655;53.210;5.768;2023-05-29T14:43:34;21.50;40.70
53748;DHT22;39655;53.210;5.768;2023-05-29T14:45:59;21.60;40.70
53748;DHT22;39655;53.210;5.768;2023-05-29T14:48:25;21.90;39.90
53748;DHT22;39655;53.210;5.768;2023-05-29T14:50:50;21.60;40.90
53748;DHT22;39655;53.210;5.768;2023-05-29T14:53:16;21.40;40.50
53748;DHT22;39655;53.210;5.768;2023-05-29T14:55:42;21.50;41.10
53748;DHT22;39655;53.210;5.768;2023-05-29T14:58:08;21.90;42.10
53748;DHT22;39655;53.210;5.768;2023-05-29T15:00:33;21.90;40.50
53748;DHT22;39655;53.210;5.768;2023-05-29T15:02:59;21.80;39.30
53748;DHT22;39655;53.210;5.768;2023-05-29T15:05:28;22.00;40.10
53748;DHT22;39655;53.210;5.768;2023-05-29T15:07:54;22.10;39.60
53748;DHT22;39655;53.210;5.768;2023-05-29T15:10:25;22.00;40.70
53748;DHT22;39655;53.210;5.768;2023-05-29T15:12:54;22.00;41.00
53748;DHT22;39655;53.210;5.768;2023-05-29T15:15:28;22.00;41.80
53748;DHT22;39655;53.210;5.768;2023-05-29T15:17:54;22.40;40.90
53748;DHT22;39655;53.210;5.768;2023-05-29T15:20:24;22.60;40.90
53748;DHT22;39655;53.210;5.768;2023-05-29T15:22:51;23.00;39.50
53748;DHT22;39655;53.210;5.768;2023-05-29T15:25:18;22.90;39.30
53748;DHT22;39655;53.210;5.768;2023-05-29T15:27:44;22.60;40.30
53748;DHT22;39655;53.210;5.768;2023-05-29T15:30:11;22.60;39.70
53748;DHT22;39655;53.210;5.768;2023-05-29T15:32:38;22.70;40.50
53748;DHT22;39655;53.210;5.768;2023-05-29T15:35:08;22.70;39.50
53748;DHT22;39655;53.210;5.768;2023-05-29T15:37:34;22.70;39.50
53748;DHT22;39655;53.210;5.768;2023-05-29T15:40:01;22.90;38.00
53748;DHT22;39655;53.210;5.768;2023-05-29T15:42:27;22.60;38.00
53748;DHT22;39655;53.210;5.768;2023-05-29T15:44:52;22.30;39.20
53748;DHT22;39655;53.210;5.768;2023-05-29T15:47:18;22.20;39.80
53748;DHT22;39655;53.210;5.768;2023-05-29T15:49:43;22.50;39.70
53748;DHT22;39655;53.210;5.768;2023-05-29T15:52:09;22.70;39.50
53748;DHT22;39655;53.210;5.768;2023-05-29T15:54:35;22.60;40.10
53748;DHT22;39655;53.210;5.768;2023-05-29T15:57:01;22.40;39.50
53748;DHT22;39655;53.210;5.768;2023-05-29T15:59:31;22.60;40.30